Time;durP1;ratioP1;P1;durP2;ratioP2;P2;SDS_P1;SDS_P2;PMS_P1;PMS_P2;Temp;Humidity;BMP_temperature;BMP_pressure;BME280_temperature;BME280_humidity;BME280_pressure;Samples;Min_cycle;Max_cycle;Signal;HPM_P1;HPM_P2
2023/11/24 00:00:00;;;;;;;7.55;3.20;;;;;;;-4.05;71.83;95897.06;5026910;28;20552;-35
2023/11/24 00:02:31;;;;;;;;;;;;;;;-4.02;72.04;95899.47;5019134;28;20045;-39
2023/11/24 00:04:57;;;;;;;6.30;2.80;;;;;;;-4.16;71.13;95894.94;5026110;28;20016;-35
2023/11/24 00:07:23;;;;;;;7.70;3.50;;;;;;;-4.22;71.53;95866.44;5027320;28;20274;-37
2023/11/24 00:09:49;;;;;;;10.88;3.33;;;;;;;-3.96;71.55;95884.03;5027942;28;20037;-36
2023/11/24 00:12:15;;;;;;;8.45;3.00;;;;;;;-3.94;71.47;95877.22;5028673;28;20516;-35
2023/11/24 00:14:41;;;;;;;9.95;2.95;;;;;;;-4.10;71.38;95869.38;5026823;28;20056;-36
2023/11/24 00:17:07;;;;;;;8.52;2.92;;;;;;;-4.09;71.11;95876.09;5028405;28;20579;-35
2023/11/24 00:19:33;;;;;;;11.13;3.40;;;;;;;-4.14;71.58;95862.75;5017329;28;20103;-36
2023/11/24 00:22:00;;;;;;;5.85;2.75;;;;;;;-4.12;71.03;95872.81;5026941;28;20065;-35
2023/11/24 00:24:26;;;;;;;7.78;3.25;;;;;;;-4.19;71.18;95853.69;5026994;28;20044;-35
2023/11/24 00:26:52;;;;;;;7.35;3.35;;;;;;;-4.34;70.69;95827.19;5010970;28;20111;-35
2023/11/24 00:29:23;;;;;;;8.50;3.30;;;;;;;-4.14;71.19;95844.19;5021567;28;20042;-37
2023/11/24 00:31:49;;;;;;;6.13;3.08;;;;;;;-4.06;71.47;95843.00;4992025;28;20045;-36
2023/11/24 00:34:15;;;;;;;8.98;3.70;;;;;;;-4.07;71.04;95831.19;5028828;28;20073;-36
2023/11/24 00:36:41;;;;;;;7.95;3.42;;;;;;;-3.94;70.88;95827.31;5023342;28;20033;-35
2023/11/24 00:39:07;;;;;;;6.15;3.22;;;;;;;-3.85;71.03;95828.66;5024409;28;20087;-35
2023/11/24 00:41:33;;;;;;;7.57;3.97;;;;;;;-3.95;70.86;95817.22;5010582;28;20429;-36
2023/11/24 00:44:01;;;;;;;7.30;3.17;;;;;;;-3.90;71.19;95823.75;5026928;28;20073;-36
2023/11/24 00:46:29;;;;;;;6.83;3.47;;;;;;;-3.90;71.35;95816.16;5026287;28;20042;-35
2023/11/24 00:48:58;;;;;;;6.57;3.20;;;;;;;-4.26;70.98;95771.97;5026682;28;20324;-35
2023/11/24 00:51:25;;;;;;;12.30;3.45;;;;;;;-4.18;71.28;95799.53;5023242;28;20072;-36
2023/11/24 00:53:52;;;;;;;9.88;2.50;;;;;;;-4.47;71.29;95765.19;5027075;28;20555;-36
2023/11/24 00:56:19;;;;;;;7.65;3.58;;;;;;;-4.29;71.98;95798.22;5027762;28;20072;-36
2023/11/24 00:58:46;;;;;;;8.10;3.60;;;;;;;-4.27;71.69;95793.13;5026257;28;20037;-36
2023/11/24 01:01:12;;;;;;;12.77;4.03;;;;;;;-4.20;72.01;95792.00;5041772;28;20476;-35
2023/11/24 01:03:39;;;;;;;8.23;3.13;;;;;;;-4.26;71.45;95784.63;5024970;28;20040;-36
2023/11/24 01:06:06;;;;;;;9.88;2.97;;;;;;;-4.28;71.86;95784.69;5014332;28;20064;-36
2023/11/24 01:08:32;;;;;;;8.50;3.08;;;;;;;-4.15;71.91;95781.69;5007465;28;20508;-36
2023/11/24 01:11:01;;;;;;;16.15;3.58;;;;;;;-4.15;71.89;95782.50;5023300;28;20127;-37
2023/11/24 01:13:31;;;;;;;9.80;3.28;;;;;;;-4.21;71.50;95785.28;5020744;28;20132;-35
2023/11/24 01:15:57;;;;;;;;;;;;;;;-4.19;71.92;95773.38;5026721;28;20041;-35
2023/11/24 01:18:25;;;;;;;10.15;3.38;;;;;;;-4.16;71.79;95773.25;4994169;28;19924;-37
2023/11/24 01:20:51;;;;;;;9.57;4.00;;;;;;;-4.07;71.95;95760.19;5007367;28;20041;-35
2023/11/24 01:23:18;;;;;;;10.88;4.28;;;;;;;-3.98;71.25;95749.69;4990358;28;20079;-35
2023/11/24 01:25:45;;;;;;;9.77;3.90;;;;;;;-4.04;71.23;95721.22;5026880;28;20520;-36
2023/11/24 01:28:13;;;;;;;10.98;3.42;;;;;;;-3.77;71.40;95740.41;5007837;28;20053;-35
2023/11/24 01:30:40;;;;;;;10.18;3.00;;;;;;;-3.71;71.16;95740.13;4991269;28;20095;-36
2023/11/24 01:33:07;;;;;;;8.57;3.67;;;;;;;-3.74;71.24;95714.06;5008280;28;20658;-36
2023/11/24 01:35:33;;;;;;;9.65;3.70;;;;;;;-3.75;70.78;95704.78;5023362;28;20034;-36
2023/11/24 01:37:59;;;;;;;11.10;3.90;;;;;;;-3.60;71.08;95709.22;5008595;28;20048;-35
2023/11/24 01:40:26;;;;;;;7.38;3.78;;;;;;;-3.60;70.75;95696.53;5025376;28;20049;-35
2023/11/24 01:42:52;;;;;;;9.02;4.00;;;;;;;-3.62;70.42;95699.16;5001541;28;20068;-36
2023/11/24 01:45:18;;;;;;;8.95;3.63;;;;;;;-3.82;70.28;95653.47;5021043;28;20041;-35
2023/11/24 01:47:46;;;;;;;8.05;3.72;;;;;;;-3.64;70.46;95683.16;5025614;28;20544;-35
2023/11/24 01:50:14;;;;;;;9.00;4.10;;;;;;;-3.62;70.54;95683.09;5026489;28;20041;-36
2023/11/24 01:52:42;;;;;;;9.80;4.47;;;;;;;-3.55;70.48;95679.38;5012737;28;20100;-36
2023/11/24 01:55:12;;;;;;;8.57;4.40;;;;;;;-3.66;69.96;95673.94;4977483;28;20045;-36
2023/11/24 01:57:40;;;;;;;7.57;3.88;;;;;;;-3.82;69.78;95675.53;5010231;28;20065;-35
2023/11/24 02:00:11;;;;;;;10.00;4.25;;;;;;;-3.90;70.37;95679.19;5010878;28;20041;-36
2023/11/24 02:02:41;;;;;;;10.35;4.60;;;;;;;-3.97;70.17;95675.25;5024234;28;20045;-36
2023/11/24 02:05:08;;;;;;;9.13;4.07;;;;;;;-3.93;70.23;95668.38;5006094;28;20046;-36
2023/11/24 02:07:34;;;;;;;9.07;4.72;;;;;;;-3.92;70.50;95662.38;5025374;28;20068;-35
2023/11/24 02:10:01;;;;;;;8.43;4.32;;;;;;;-3.79;70.58;95655.09;5005531;28;20195;-36
2023/11/24 02:12:33;;;;;;;9.57;4.60;;;;;;;-3.76;70.40;95642.25;5009994;28;20058;-36
2023/11/24 02:14:59;;;;;;;9.23;4.38;;;;;;;-3.90;69.76;95620.03;5024008;28;20065;-34
2023/11/24 02:17:25;;;;;;;13.23;4.70;;;;;;;-3.75;69.81;95647.28;5027182;28;20045;-36
2023/11/24 02:19:51;;;;;;;9.18;4.13;;;;;;;-3.74;70.13;95640.50;5026304;28;20492;-36
2023/11/24 02:22:17;;;;;;;11.05;4.68;;;;;;;-3.75;69.69;95636.28;5026191;28;20132;-34
2023/11/24 02:24:44;;;;;;;8.68;4.20;;;;;;;-3.62;70.10;95643.34;5009191;28;20038;-35
2023/11/24 02:27:10;;;;;;;10.25;4.38;;;;;;;-3.73;69.50;95632.81;4976302;28;20050;-36
2023/11/24 02:29:37;;;;;;;11.00;4.75;;;;;;;-3.78;69.68;95641.50;5008318;28;20037;-37
2023/11/24 02:32:04;;;;;;;10.90;3.85;;;;;;;-3.74;69.98;95643.84;5007277;28;20566;-36
2023/11/24 02:34:31;;;;;;;11.80;4.75;;;;;;;-3.80;70.22;95633.97;5024672;28;20429;-34
2023/11/24 02:36:57;;;;;;;11.45;4.40;;;;;;;-3.79;69.88;95632.25;5010029;28;20044;-36
2023/11/24 02:39:23;;;;;;;13.40;5.13;;;;;;;-3.77;70.12;95622.88;5025702;28;20095;-36
2023/11/24 02:41:49;;;;;;;8.98;4.38;;;;;;;-3.80;70.38;95617.91;5025825;28;20041;-35
2023/11/24 02:44:15;;;;;;;9.55;4.22;;;;;;;-3.91;70.17;95609.06;5025894;28;20041;-35
2023/11/24 02:46:40;;;;;;;9.73;3.95;;;;;;;-3.81;70.46;95601.03;5023492;28;20037;-36
2023/11/24 02:49:06;;;;;;;10.98;4.55;;;;;;;-3.76;69.81;95604.19;5025021;28;20049;-35
2023/11/24 02:51:33;;;;;;;12.70;5.70;;;;;;;-3.76;70.07;95601.66;5007838;28;20069;-36
2023/11/24 02:53:59;;;;;;;9.57;4.95;;;;;;;-3.72;69.93;95598.94;5007459;28;20041;-36
2023/11/24 02:56:26;;;;;;;10.48;4.35;;;;;;;-3.70;70.21;95599.69;5025629;28;20112;-36
2023/11/24 02:58:52;;;;;;;10.95;4.45;;;;;;;-3.83;69.74;95602.84;5006418;28;20037;-37
2023/11/24 03:01:18;;;;;;;13.20;5.22;;;;;;;-3.91;70.57;95598.91;5041240;28;20091;-36
2023/11/24 03:03:44;;;;;;;12.88;5.03;;;;;;;-3.95;70.44;95601.66;5024233;28;20056;-37
2023/11/24 03:06:12;;;;;;;12.00;5.13;;;;;;;-4.04;71.04;95581.75;5025650;28;20061;-36
2023/11/24 03:08:39;;;;;;;11.75;5.07;;;;;;;-3.83;70.97;95598.59;5025993;28;20517;-36
2023/11/24 03:11:06;;;;;;;14.85;5.13;;;;;;;-3.80;70.59;95590.00;5027271;28;20044;-39
2023/11/24 03:13:33;;;;;;;10.85;5.10;;;;;;;-3.66;70.66;95585.16;5013385;28;20053;-36
2023/11/24 03:16:04;;;;;;;10.05;4.70;;;;;;;-3.65;70.65;95587.63;5012776;28;20033;-36
2023/11/24 03:18:31;;;;;;;13.57;5.43;;;;;;;-3.73;70.60;95574.47;5023329;28;20041;-36
2023/11/24 03:20:57;;;;;;;13.55;6.35;;;;;;;-3.83;70.73;95547.03;5045082;28;20073;-36
2023/11/24 03:23:23;;;;;;;11.95;5.30;;;;;;;-3.58;70.91;95573.78;5010565;28;20052;-35
2023/11/24 03:25:50;;;;;;;11.02;4.90;;;;;;;-3.58;70.89;95563.63;5010190;28;20061;-36
2023/11/24 03:28:18;;;;;;;11.50;4.88;;;;;;;-3.57;70.83;95567.81;5026282;28;20048;-36
2023/11/24 03:30:46;;;;;;;15.40;5.80;;;;;;;-3.61;70.58;95563.75;5024376;28;20087;-36
2023/11/24 03:33:14;;;;;;;12.25;5.85;;;;;;;-3.68;70.43;95548.88;5009168;28;20839;-36
2023/11/24 03:35:40;;;;;;;11.02;4.38;;;;;;;-3.65;70.79;95549.56;5012016;28;20061;-38
2023/11/24 03:38:07;;;;;;;14.57;6.03;;;;;;;-3.71;70.94;95549.00;5027949;28;20041;-35
2023/11/24 03:40:34;;;;;;;13.57;6.25;;;;;;;-3.97;70.77;95496.91;5026274;28;20052;-36
2023/11/24 03:43:02;;;;;;;14.00;5.32;;;;;;;-3.62;70.98;95544.38;5027379;28;20049;-35
2023/11/24 03:45:29;;;;;;;17.93;7.13;;;;;;;-3.70;70.40;95538.81;5011700;28;20132;-35
2023/11/24 03:47:56;;;;;;;15.18;6.00;;;;;;;-3.64;70.48;95535.16;5029081;28;20049;-37
2023/11/24 03:50:21;;;;;;;13.07;5.93;;;;;;;-3.74;70.66;95527.16;5028702;28;20485;-36
2023/11/24 03:52:47;;;;;;;18.88;5.70;;;;;;;-3.75;70.86;95528.03;5026664;28;20398;-37
2023/11/24 03:55:13;;;;;;;8.65;4.55;;;;;;;-3.76;71.09;95523.03;5026442;28;20217;-36
2023/11/24 03:57:39;;;;;;;11.75;5.30;;;;;;;-3.94;71.29;95500.16;5027939;28;20784;-36
2023/11/24 04:00:06;;;;;;;13.10;6.20;;;;;;;-3.72;71.24;95537.25;5040761;28;20045;-37
2023/11/24 04:02:38;;;;;;;13.43;5.90;;;;;;;-3.83;71.17;95529.28;5027522;28;20041;-34
2023/11/24 04:05:05;;;;;;;16.58;6.18;;;;;;;-4.14;71.20;95500.22;5027349;28;20084;-36
2023/11/24 04:07:31;;;;;;;17.00;6.47;;;;;;;-3.79;71.54;95528.25;5027288;28;20056;-36
2023/11/24 04:09:58;;;;;;;16.98;6.65;;;;;;;-3.72;71.24;95514.41;5010642;28;20181;-36
2023/11/24 04:12:24;;;;;;;16.20;8.00;;;;;;;-3.68;71.39;95547.19;5028470;28;20725;-36
2023/11/24 04:14:50;;;;;;;18.33;7.00;;;;;;;-3.64;70.81;95538.53;5028123;28;20037;-35
2023/11/24 04:17:16;;;;;;;17.40;6.88;;;;;;;-3.55;71.18;95532.22;5016871;28;20762;-37
2023/11/24 04:19:42;;;;;;;13.68;6.80;;;;;;;-3.50;70.88;95530.28;5026800;28;20060;-36
2023/11/24 04:22:08;;;;;;;20.45;8.27;;;;;;;-3.62;70.96;95498.69;5027666;28;20654;-35
2023/11/24 04:24:35;;;;;;;15.63;7.20;;;;;;;-3.31;70.86;95530.28;5010580;28;20049;-36
2023/11/24 04:27:01;;;;;;;14.48;7.25;;;;;;;-3.44;70.50;95528.28;5026741;28;20049;-36
2023/11/24 04:29:27;;;;;;;17.38;8.18;;;;;;;-3.39;70.91;95528.06;5022319;28;20535;-35
2023/11/24 04:31:54;;;;;;;21.92;7.75;;;;;;;-3.38;70.67;95522.09;5029553;28;20037;-36
2023/11/24 04:34:23;;;;;;;15.82;7.38;;;;;;;-3.29;70.30;95516.59;5011600;28;20083;-36
2023/11/24 04:36:50;;;;;;;20.23;8.05;;;;;;;-3.23;70.96;95506.16;5028186;28;20041;-34
2023/11/24 04:39:16;;;;;;;10.88;5.65;;;;;;;-3.30;70.44;95506.53;5015671;28;20132;-37
2023/11/24 04:41:43;;;;;;;18.25;7.97;;;;;;;-3.35;70.68;95493.25;5026891;28;20132;-36
2023/11/24 04:44:09;;;;;;;15.85;6.45;;;;;;;-3.32;70.95;95490.53;5026598;28;20049;-36
2023/11/24 04:46:35;;;;;;;16.92;7.22;;;;;;;-3.24;70.53;95494.34;5026479;28;20087;-36
2023/11/24 04:49:03;;;;;;;17.38;7.45;;;;;;;-3.22;70.45;95487.50;5027398;28;20604;-35
2023/11/24 04:51:33;;;;;;;15.88;6.93;;;;;;;-3.17;70.77;95482.19;5027559;28;20042;-36
2023/11/24 04:54:02;;;;;;;19.30;7.53;;;;;;;-3.19;70.64;95474.63;5026859;28;20159;-35
2023/11/24 04:56:29;;;;;;;16.48;6.68;;;;;;;-3.15;70.69;95482.97;5026248;28;20052;-36
2023/11/24 04:58:55;;;;;;;20.17;7.50;;;;;;;-3.21;70.61;95468.84;5027830;28;20037;-35
2023/11/24 05:01:21;;;;;;;18.25;7.25;;;;;;;-3.23;70.70;95460.47;5025919;28;20107;-35
2023/11/24 05:03:50;;;;;;;21.67;7.55;;;;;;;-3.15;70.53;95463.47;5026717;28;20041;-35
2023/11/24 05:06:17;;;;;;;17.15;6.53;;;;;;;-3.24;70.60;95442.75;4997220;28;20092;-37
2023/11/24 05:08:43;;;;;;;14.10;6.00;;;;;;;-3.03;70.69;95470.47;5021630;28;20128;-35
2023/11/24 05:11:08;;;;;;;19.98;6.45;;;;;;;-2.95;70.70;95476.91;5025968;28;20132;-36
2023/11/24 05:13:34;;;;;;;16.83;6.57;;;;;;;-3.10;70.34;95441.22;5025566;28;20053;-36
2023/11/24 05:16:00;;;;;;;21.63;5.78;;;;;;;-2.95;70.97;95456.59;5025820;28;20474;-37
2023/11/24 05:18:26;;;;;;;16.02;5.88;;;;;;;-2.93;71.09;95465.75;5010081;28;20129;-35
2023/11/24 05:20:53;;;;;;;14.40;6.05;;;;;;;-2.92;70.98;95464.03;5026900;28;20065;-35
2023/11/24 05:23:19;;;;;;;13.18;6.05;;;;;;;-2.90;71.04;95452.94;5025320;28;20513;-34
2023/11/24 05:25:45;;;;;;;16.05;6.15;;;;;;;-2.88;70.88;95455.41;5007688;28;20045;-36
2023/11/24 05:28:11;;;;;;;14.18;6.60;;;;;;;-2.90;70.62;95455.47;5025550;28;20226;-35
2023/11/24 05:30:37;;;;;;;14.20;6.68;;;;;;;-2.80;70.74;95455.84;5020613;28;20073;-35
2023/11/24 05:33:03;;;;;;;15.60;7.28;;;;;;;-2.75;70.79;95459.78;5025505;28;20049;-35
2023/11/24 05:35:29;;;;;;;16.60;6.90;;;;;;;-2.89;70.67;95425.81;5025867;28;20041;-35
2023/11/24 05:37:55;;;;;;;15.50;6.38;;;;;;;-2.88;70.63;95425.75;5016123;28;20527;-35
2023/11/24 05:40:23;;;;;;;12.60;6.22;;;;;;;-2.71;70.65;95450.28;5002660;28;20052;-36
2023/11/24 05:42:49;;;;;;;17.58;6.47;;;;;;;-2.70;70.62;95462.09;5025173;28;20163;-34
2023/11/24 05:45:15;;;;;;;13.40;6.53;;;;;;;-2.71;70.76;95460.44;5026288;28;20068;-36
2023/11/24 05:47:41;;;;;;;15.98;6.60;;;;;;;-2.69;70.75;95456.13;5005440;28;20575;-35
2023/11/24 05:50:10;;;;;;;20.27;6.95;;;;;;;-2.83;70.71;95430.59;5020609;28;20128;-35
2023/11/24 05:52:37;;;;;;;16.42;6.82;;;;;;;-2.75;70.60;95444.53;5023957;28;20053;-36
2023/11/24 05:55:04;;;;;;;20.33;6.97;;;;;;;-2.75;70.74;95449.63;5025049;28;20107;-36
2023/11/24 05:57:33;;;;;;;14.15;6.78;;;;;;;-2.75;70.62;95454.72;5025414;28;20037;-37
2023/11/24 05:59:59;;;;;;;15.80;7.05;;;;;;;-2.67;70.42;95449.25;5026468;28;20044;-37
2023/11/24 06:02:25;;;;;;;16.90;6.60;;;;;;;-2.65;70.82;95444.91;5026013;28;20037;-36
2023/11/24 06:04:51;;;;;;;16.08;7.60;;;;;;;-2.66;70.49;95446.63;5026233;28;20425;-35
2023/11/24 06:07:17;;;;;;;14.82;7.00;;;;;;;-2.72;70.80;95443.59;5011764;28;20038;-36
2023/11/24 06:09:44;;;;;;;15.80;6.80;;;;;;;-2.76;70.31;95445.44;5057890;28;20049;-37
2023/11/24 06:12:10;;;;;;;20.33;6.88;;;;;;;-2.97;70.74;95410.09;5024705;28;20044;-35
2023/11/24 06:14:37;;;;;;;19.88;7.03;;;;;;;-2.81;70.83;95436.41;5022781;28;20501;-36
2023/11/24 06:17:04;;;;;;;13.98;5.68;;;;;;;-2.83;70.49;95438.22;5017201;28;20490;-36
2023/11/24 06:19:30;;;;;;;18.15;7.28;;;;;;;-3.27;70.62;95370.09;4998181;28;20075;-36
2023/11/24 06:21:56;;;;;;;18.20;7.47;;;;;;;-2.83;70.71;95428.88;5025601;28;20092;-37
2023/11/24 06:24:21;;;;;;;15.52;6.70;;;;;;;-3.15;70.82;95374.59;5024255;28;20464;-37
2023/11/24 06:26:47;;;;;;;17.10;7.00;;;;;;;-2.95;70.70;95393.09;5025952;28;20502;-36
2023/11/24 06:29:14;;;;;;;16.88;7.57;;;;;;;-2.94;70.41;95400.63;5020234;28;20058;-36
2023/11/24 06:31:40;;;;;;;17.48;7.07;;;;;;;-3.01;70.59;95394.22;5009793;28;20432;-37
2023/11/24 06:34:07;;;;;;;13.75;6.47;;;;;;;-2.82;70.63;95429.66;5040802;28;20041;-35
2023/11/24 06:36:33;;;;;;;15.15;6.63;;;;;;;-2.84;70.40;95428.94;5024028;28;20041;-35
2023/11/24 06:39:02;;;;;;;17.58;7.07;;;;;;;-2.86;70.40;95416.31;5025750;28;20041;-34
2023/11/24 06:41:28;;;;;;;18.08;8.02;;;;;;;-2.87;70.48;95408.75;5024856;28;20041;-35
2023/11/24 06:43:54;;;;;;;19.42;6.78;;;;;;;-2.85;70.68;95410.31;5027785;28;20443;-35
2023/11/24 06:46:21;;;;;;;21.88;8.48;;;;;;;-2.85;71.19;95423.03;5028739;28;20053;-36
2023/11/24 06:48:52;;;;;;;13.93;6.78;;;;;;;-2.79;70.67;95417.66;5030096;28;20049;-35
2023/11/24 06:51:19;;;;;;;15.07;7.40;;;;;;;-2.98;70.46;95381.34;5028989;28;20065;-36
2023/11/24 06:53:46;;;;;;;19.17;7.75;;;;;;;-2.96;70.51;95374.47;5017200;28;20508;-35
2023/11/24 06:56:12;;;;;;;22.75;8.27;;;;;;;-2.71;70.54;95414.69;5029322;28;20045;-34
2023/11/24 06:58:38;;;;;;;22.52;7.53;;;;;;;-2.67;70.37;95411.13;5027318;28;20544;-37
2023/11/24 07:01:04;;;;;;;20.25;8.02;;;;;;;-2.64;70.31;95416.88;5028848;28;20083;-36
2023/11/24 07:03:31;;;;;;;18.48;8.73;;;;;;;-2.68;70.09;95405.22;5012956;28;20049;-35
2023/11/24 07:05:58;;;;;;;17.98;7.57;;;;;;;-2.65;70.27;95396.59;5028314;28;20517;-35
2023/11/24 07:08:23;;;;;;;18.48;7.20;;;;;;;-2.64;70.27;95405.88;5028248;28;20045;-35
2023/11/24 07:10:49;;;;;;;18.30;7.07;;;;;;;-2.85;70.32;95376.47;5012439;28;20049;-36
2023/11/24 07:13:16;;;;;;;17.50;7.80;;;;;;;-2.70;69.53;95404.47;5028240;28;20068;-34
2023/11/24 07:15:41;;;;;;;20.65;7.60;;;;;;;-3.02;69.81;95354.47;5026730;28;20436;-35
2023/11/24 07:18:07;;;;;;;17.88;7.80;;;;;;;-2.65;69.47;95401.69;5015002;28;20038;-36
2023/11/24 07:20:33;;;;;;;18.80;8.30;;;;;;;-2.62;69.26;95402.34;5042039;28;20056;-36
2023/11/24 07:23:00;;;;;;;18.17;8.50;;;;;;;-2.59;69.38;95407.28;5060092;28;20548;-37
2023/11/24 07:25:28;;;;;;;20.13;7.40;;;;;;;-2.52;69.24;95404.44;5017565;28;20112;-35
2023/11/24 07:27:54;;;;;;;19.97;8.10;;;;;;;-2.56;69.27;95385.97;5025997;28;20045;-35
2023/11/24 07:30:22;;;;;;;18.10;8.05;;;;;;;-2.42;68.88;95398.81;5023159;28;20295;-37
2023/11/24 07:32:50;;;;;;;17.35;7.32;;;;;;;-2.41;68.98;95402.16;5027515;28;20425;-35
2023/11/24 07:35:16;;;;;;;18.65;7.38;;;;;;;-2.41;68.75;95397.91;5027772;28;20068;-35
2023/11/24 07:37:43;;;;;;;15.88;7.05;;;;;;;-2.40;68.77;95407.16;5026507;28;20045;-35
2023/11/24 07:40:13;;;;;;;20.85;8.43;;;;;;;-2.35;68.50;95419.63;5010600;28;20041;-36
2023/11/24 07:42:41;;;;;;;16.48;6.90;;;;;;;-2.33;68.37;95413.56;5026455;28;20088;-35
2023/11/24 07:45:10;;;;;;;17.05;6.95;;;;;;;-2.26;68.19;95411.53;5028457;28;20047;-36
2023/11/24 07:47:37;;;;;;;15.25;6.78;;;;;;;-2.19;68.18;95413.66;5028850;28;20050;-36
2023/11/24 07:50:04;;;;;;;18.67;7.03;;;;;;;-2.05;67.84;95405.31;5026248;28;20072;-37
2023/11/24 07:52:32;;;;;;;20.87;8.03;;;;;;;-2.08;67.78;95387.66;5025422;28;20041;-36
2023/11/24 07:54:58;;;;;;;18.35;6.90;;;;;;;-1.96;67.44;95402.28;5026410;28;20555;-35
2023/11/24 07:57:26;;;;;;;18.88;7.07;;;;;;;-1.98;67.87;95395.59;5026837;28;20806;-35
2023/11/24 07:59:53;;;;;;;20.77;8.32;;;;;;;-1.99;67.37;95392.25;5026441;28;20563;-36
2023/11/24 08:02:19;;;;;;;19.33;7.57;;;;;;;-2.02;75.75;95396.69;5025799;28;20051;-36
2023/11/24 08:04:45;;;;;;;14.88;7.88;;;;;;;-1.99;80.09;95404.97;5024830;28;20049;-36
2023/11/24 08:07:11;;;;;;;14.73;7.20;;;;;;;-1.93;81.24;95403.81;5008693;28;20117;-37
2023/11/24 08:09:37;;;;;;;19.17;6.93;;;;;;;-2.13;80.70;95380.28;5027116;28;20136;-36
2023/11/24 08:12:08;;;;;;;17.42;7.50;;;;;;;-1.94;78.75;95409.84;5027144;28;20099;-36
2023/11/24 08:14:34;;;;;;;23.60;8.00;;;;;;;-1.89;76.71;95405.31;5027156;28;20517;-37
2023/11/24 08:17:01;;;;;;;18.58;7.30;;;;;;;-1.91;74.77;95399.47;5017742;28;20374;-36
2023/11/24 08:19:27;;;;;;;28.60;8.95;;;;;;;-2.05;73.50;95373.97;5017425;28;20052;-35
2023/11/24 08:21:53;;;;;;;20.92;7.32;;;;;;;-1.80;72.48;95404.81;5027621;28;20046;-35
2023/11/24 08:24:19;;;;;;;16.85;8.13;;;;;;;-1.73;71.92;95391.66;5022527;28;20152;-36
2023/11/24 08:26:45;;;;;;;22.00;8.98;;;;;;;-1.53;70.74;95402.47;5024302;28;20535;-44
2023/11/24 08:29:12;;;;;;;20.98;7.85;;;;;;;-1.63;69.93;95379.25;5023217;28;20468;-35
2023/11/24 08:31:40;;;;;;;23.58;8.15;;;;;;;-1.50;69.25;95387.84;5026922;28;20053;-35
2023/11/24 08:34:08;;;;;;;17.65;7.97;;;;;;;-1.46;68.40;95385.94;5058867;28;20052;-36
2023/11/24 08:36:35;;;;;;;18.90;7.60;;;;;;;-1.57;67.82;95360.28;5025091;28;20037;-36
2023/11/24 08:39:08;;;;;;;19.13;7.88;;;;;;;-1.36;67.42;95392.19;5027105;28;20041;-36
2023/11/24 08:41:34;;;;;;;22.38;8.48;;;;;;;-1.39;67.37;95385.53;5024063;28;20140;-35
2023/11/24 08:44:00;;;;;;;19.70;7.72;;;;;;;-1.53;67.10;95352.38;5025082;28;20136;-35
2023/11/24 08:46:27;;;;;;;20.35;7.60;;;;;;;-1.31;66.87;95385.91;5024568;28;20063;-35
2023/11/24 08:48:54;;;;;;;20.10;7.40;;;;;;;-1.32;66.42;95381.75;5028105;28;20402;-35
2023/11/24 08:51:20;;;;;;;17.17;7.30;;;;;;;-1.39;66.28;95377.88;5026226;28;20041;-36
2023/11/24 08:53:46;;;;;;;18.80;7.40;;;;;;;-1.38;66.37;95383.81;5025232;28;20542;-37
2023/11/24 08:56:13;;;;;;;19.52;7.72;;;;;;;-1.33;66.21;95374.19;5027058;28;20047;-36
2023/11/24 08:58:39;;;;;;;16.02;7.47;;;;;;;-1.38;66.30;95364.25;5026347;28;20421;-35
2023/11/24 09:01:06;;;;;;;17.45;7.22;;;;;;;-1.56;65.71;95339.00;5024820;28;20047;-36
2023/11/24 09:03:32;;;;;;;16.90;6.95;;;;;;;-1.55;66.06;95338.09;5025226;28;20048;-36
2023/11/24 09:05:58;;;;;;;18.13;7.55;;;;;;;-1.44;66.62;95358.69;5025361;28;20127;-36
2023/11/24 09:08:25;;;;;;;18.80;6.90;;;;;;;-1.64;65.98;95328.44;5025147;28;20491;-36
2023/11/24 09:10:51;;;;;;;14.40;6.35;;;;;;;-1.46;65.78;95353.66;5026058;28;20060;-36
2023/11/24 09:13:19;;;;;;;18.17;7.38;;;;;;;-1.54;65.61;95337.19;5024861;28;20037;-36
2023/11/24 09:15:46;;;;;;;20.83;7.85;;;;;;;-1.29;65.40;95365.44;5006063;28;20442;-37
2023/11/24 09:18:12;;;;;;;22.95;7.40;;;;;;;-1.48;65.21;95319.84;5007883;28;20061;-35
2023/11/24 09:20:38;;;;;;;15.02;6.65;;;;;;;-1.19;65.11;95356.38;5017083;28;20505;-35
2023/11/24 09:23:05;;;;;;;19.20;6.07;;;;;;;-1.46;64.91;95302.75;5057666;28;20119;-36
2023/11/24 09:25:32;;;;;;;16.35;7.47;;;;;;;-1.20;64.92;95361.56;5025649;28;20081;-36
2023/11/24 09:27:59;;;;;;;15.55;6.43;;;;;;;-1.15;64.80;95357.03;5025895;28;20083;-35
2023/11/24 09:30:26;;;;;;;19.38;7.30;;;;;;;-1.18;64.79;95362.28;5038742;28;20080;-37
2023/11/24 09:32:54;;;;;;;17.90;6.85;;;;;;;-1.22;64.73;95365.94;5057624;28;20056;-36
2023/11/24 09:35:25;;;;;;;17.85;7.20;;;;;;;-1.26;64.70;95356.81;5025738;28;20044;-35
2023/11/24 09:37:54;;;;;;;16.95;7.70;;;;;;;-1.11;64.74;95371.22;5037687;28;20033;-36
2023/11/24 09:40:23;;;;;;;16.25;7.93;;;;;;;-1.34;64.38;95327.50;5024422;28;20037;-36
2023/11/24 09:42:51;;;;;;;17.95;7.78;;;;;;;-1.03;64.45;95369.03;5039232;28;20049;-35
2023/11/24 09:45:19;;;;;;;15.35;7.10;;;;;;;-1.04;64.38;95373.31;5025144;28;20569;-35
2023/11/24 09:47:52;;;;;;;16.90;7.63;;;;;;;-1.02;64.76;95366.41;5024229;28;20129;-37
2023/11/24 09:50:23;;;;;;;16.85;6.50;;;;;;;-1.09;65.42;95354.94;5026267;28;20056;-38
2023/11/24 09:52:54;;;;;;;20.90;7.97;;;;;;;-0.95;65.08;95384.72;5009790;28;20045;-36
2023/11/24 09:55:21;;;;;;;18.83;7.45;;;;;;;-0.88;65.77;95391.09;5021785;28;20492;-36
2023/11/24 09:57:49;;;;;;;21.23;7.47;;;;;;;-0.79;65.25;95387.22;5023447;28;20052;-36
2023/11/24 10:00:19;;;;;;;17.23;6.97;;;;;;;-0.95;64.95;95357.53;5026003;28;20046;-35
2023/11/24 10:02:49;;;;;;;;;;;;;;;-0.67;64.76;95387.28;5024644;28;20060;-36
2023/11/24 10:05:19;;;;;;;17.52;6.10;;;;;;;-0.65;64.72;95387.22;5026113;28;19963;-36
2023/11/24 10:07:47;;;;;;;16.50;6.60;;;;;;;-0.67;64.97;95377.09;5022066;28;20140;-37
2023/11/24 10:10:25;;;;;;;20.15;7.20;;;;;;;-0.63;65.09;95391.28;5025376;28;20044;-36
2023/11/24 10:12:53;;;;;;;;;;;;;;;-0.56;64.69;95392.56;4996872;28;20045;-36
2023/11/24 10:15:20;;;;;;;19.13;6.97;;;;;;;-0.54;64.72;95390.78;5005808;28;20313;-36
2023/11/24 10:17:48;;;;;;;15.77;6.38;;;;;;;-0.50;64.81;95394.78;5043143;28;20497;-35
2023/11/24 10:20:18;;;;;;;14.07;6.90;;;;;;;-0.52;64.78;95399.13;5028939;28;20477;-36
2023/11/24 10:22:49;;;;;;;17.52;7.38;;;;;;;-0.53;64.68;95397.50;5028981;28;20052;-36
2023/11/24 10:25:20;;;;;;;17.63;6.82;;;;;;;-0.77;64.43;95367.53;5029540;28;20041;-36
2023/11/24 10:27:46;;;;;;;15.05;7.18;;;;;;;-0.93;64.66;95373.53;5028690;28;20037;-35
2023/11/24 10:30:12;;;;;;;17.50;7.65;;;;;;;-0.78;64.56;95399.84;5023098;28;20038;-36
2023/11/24 10:32:43;;;;;;;16.20;6.35;;;;;;;-0.75;64.67;95397.13;5028915;28;20434;-37
2023/11/24 10:35:12;;;;;;;18.38;7.18;;;;;;;-0.76;64.84;95392.13;5022086;28;20041;-37
2023/11/24 10:37:39;;;;;;;13.95;7.30;;;;;;;-0.78;64.51;95404.13;5028834;28;20509;-37
2023/11/24 10:40:10;;;;;;;16.60;6.78;;;;;;;-1.04;64.74;95375.88;5025677;28;20156;-36
2023/11/24 10:42:38;;;;;;;15.13;6.63;;;;;;;-0.88;64.99;95402.09;5029438;28;20119;-36
2023/11/24 10:45:09;;;;;;;15.05;6.43;;;;;;;-0.86;64.86;95405.41;5028382;28;20037;-36
2023/11/24 10:47:43;;;;;;;15.85;6.43;;;;;;;-0.90;64.95;95405.66;5028732;28;20127;-37
2023/11/24 10:50:12;;;;;;;15.45;6.20;;;;;;;-0.91;64.92;95399.75;5028021;28;20143;-36
2023/11/24 10:52:56;;;;;;;17.52;6.88;;;;;;;-0.87;65.28;95408.03;5017414;28;20091;-36
2023/11/24 10:55:22;;;;;;;16.17;7.70;;;;;;;-0.86;65.17;95407.94;5007816;28;20482;-36
2023/11/24 10:57:48;;;;;;;19.17;7.53;;;;;;;-0.86;65.49;95409.69;5022607;28;20114;-36
2023/11/24 11:00:19;;;;;;;18.65;6.90;;;;;;;-0.89;65.59;95417.50;5022868;28;20045;-36
2023/11/24 11:02:45;;;;;;;14.80;6.32;;;;;;;-0.90;65.08;95424.34;5028698;28;20095;-36
2023/11/24 11:05:48;;;;;;;13.38;6.38;;;;;;;-0.93;65.34;95421.94;5029319;28;20091;-36
2023/11/24 11:08:18;;;;;;;14.98;7.40;;;;;;;-0.90;64.96;95429.44;5014518;28;20049;-37
2023/11/24 11:11:05;;;;;;;13.25;6.47;;;;;;;-1.03;65.22;95399.63;5031114;28;20099;-36
2023/11/24 11:13:36;;;;;;;16.85;6.97;;;;;;;-0.83;65.17;95429.06;4999781;28;20044;-36
2023/11/24 11:16:08;;;;;;;16.33;6.95;;;;;;;-0.78;64.68;95429.59;5016727;28;20136;-37
2023/11/24 11:18:35;;;;;;;16.75;7.60;;;;;;;-0.78;64.75;95421.97;5043178;28;20042;-37
2023/11/24 11:21:16;;;;;;;16.90;6.80;;;;;;;-0.66;65.08;95431.47;5061239;28;20045;-34
2023/11/24 11:23:42;;;;;;;14.93;6.82;;;;;;;-0.62;64.94;95443.09;5029332;28;20045;-37
2023/11/24 11:26:09;;;;;;;15.57;6.45;;;;;;;-0.57;64.89;95452.13;5028625;28;20041;-35